TimePDT,TemperatureF,Dew PointF,Humidity,Sea Level PressureIn,VisibilityMPH,Wind Direction,Wind SpeedMPH,Gust SpeedMPH,PrecipitationIn,Events,Conditions,WindDirDegrees,DateUTC
12:56 AM,51.1,50.0,96,30.03,4.0,SSW,4.6,-,0.07,Rain,Light Rain,200,2013-03-31 07:56:00
1:56 AM,52.0,50.0,93,30.04,4.0,South,15.0,-,0.11,Rain,Light Rain,180,2013-03-31 08:56:00
2:07 AM,51.8,50.0,94,30.04,6.0,South,13.8,-,0.01,Rain,Light Rain,180,2013-03-31 09:07:00
2:28 AM,51.8,50.0,94,30.04,8.0,SSE,8.1,-,0.01,Rain,Light Rain,160,2013-03-31 09:28:00
2:45 AM,51.8,50.0,94,30.02,9.0,SE,4.6,-,0.02,Rain,Light Rain,140,2013-03-31 09:45:00
2:56 AM,51.1,50.0,96,30.01,10.0,ENE,3.5,-,0.02,Rain,Light Rain,70,2013-03-31 09:56:00
3:56 AM,51.1,51.1,100,29.99,10.0,Calm,Calm,-,0.01,Rain,Light Rain,0,2013-03-31 10:56:00
4:56 AM,51.1,50.0,96,29.98,6.0,WNW,6.9,-,0.00,,Overcast,300,2013-03-31 11:56:00
5:56 AM,51.1,50.0,96,30.00,8.0,Calm,Calm,-,N/A,,Overcast,0,2013-03-31 12:56:00
6:23 AM,51.8,51.8,100,30.00,9.0,Calm,Calm,-,N/A,,Mostly Cloudy,0,2013-03-31 13:23:00
6:56 AM,51.1,50.0,96,30.01,3.0,West,3.5,-,0.01,Rain,Light Rain,280,2013-03-31 13:56:00
7:08 AM,51.8,50.0,94,30.01,2.5,Calm,Calm,-,0.01,Rain,Light Rain,0,2013-03-31 14:08:00
7:14 AM,51.8,50.0,94,30.01,3.0,West,4.6,-,0.02,Rain,Light Rain,280,2013-03-31 14:14:00
7:42 AM,51.8,50.0,94,30.03,4.0,Calm,Calm,-,0.03,,Overcast,0,2013-03-31 14:42:00
7:56 AM,52.0,51.1,97,30.04,4.0,Calm,Calm,-,0.03,Rain,Light Rain,0,2013-03-31 14:56:00
8:10 AM,51.8,50.0,94,30.03,5.0,Calm,Calm,-,0.00,Rain,Light Rain,0,2013-03-31 15:10:00
8:56 AM,52.0,51.1,97,30.04,4.0,South,3.5,-,0.03,Rain,Light Rain,170,2013-03-31 15:56:00
9:07 AM,51.8,51.8,100,30.04,3.0,South,5.8,-,0.01,Rain,Light Rain,190,2013-03-31 16:07:00
9:56 AM,52.0,50.0,93,30.06,6.0,South,6.9,-,0.02,Rain,Light Rain,170,2013-03-31 16:56:00
10:47 AM,51.8,50.0,94,30.07,2.5,South,5.8,-,0.01,Rain,Light Rain,170,2013-03-31 17:47:00
10:56 AM,52.0,51.1,97,30.08,1.8,South,5.8,-,0.03,Rain,Rain,180,2013-03-31 17:56:00
11:08 AM,51.8,51.8,100,30.07,2.5,South,3.5,-,0.00,Rain,Light Rain,190,2013-03-31 18:08:00
11:15 AM,51.8,51.8,100,30.07,4.0,South,5.8,-,0.00,Rain,Light Rain,190,2013-03-31 18:15:00
11:26 AM,53.6,51.8,94,30.07,7.0,SSW,4.6,-,0.01,Rain,Light Rain,200,2013-03-31 18:26:00
11:33 AM,53.6,51.8,94,30.07,8.0,South,4.6,-,0.01,Rain,Light Rain,190,2013-03-31 18:33:00
11:56 AM,52.0,51.1,97,30.09,5.0,South,4.6,-,0.02,Rain,Light Rain,170,2013-03-31 18:56:00
12:10 PM,53.6,51.8,94,30.08,6.0,South,4.6,-,0.00,Rain,Light Rain,180,2013-03-31 19:10:00
12:28 PM,53.6,51.8,94,30.09,6.0,South,5.8,-,0.00,Rain,Light Rain,180,2013-03-31 19:28:00
12:56 PM,53.1,52.0,96,30.09,8.0,South,3.5,-,0.01,Rain,Light Rain,170,2013-03-31 19:56:00
1:22 PM,53.6,53.6,100,30.08,6.0,South,4.6,-,0.01,Rain,Light Rain,180,2013-03-31 20:22:00
1:56 PM,53.1,51.1,93,30.09,4.0,South,6.9,-,0.02,Rain,Light Rain,180,2013-03-31 20:56:00
2:05 PM,53.6,51.8,94,30.08,5.0,South,5.8,-,0.00,Rain,Light Rain,170,2013-03-31 21:05:00
2:34 PM,53.6,53.6,100,30.08,7.0,South,5.8,-,0.01,Rain,Light Rain,180,2013-03-31 21:34:00
2:51 PM,53.6,53.6,100,30.08,7.0,SSW,4.6,-,0.01,Rain,Light Rain,200,2013-03-31 21:51:00
2:56 PM,54.0,53.1,97,30.08,7.0,South,4.6,-,0.01,Rain,Light Rain,190,2013-03-31 21:56:00
3:56 PM,55.9,53.1,90,30.06,10.0,WNW,3.5,-,0.01,,Mostly Cloudy,300,2013-03-31 22:56:00
4:35 PM,53.6,51.8,94,30.06,10.0,WNW,4.6,-,0.00,Rain,Light Rain,300,2013-03-31 23:35:00
4:56 PM,54.0,51.1,90,30.06,9.0,WNW,4.6,-,0.00,Rain,Light Rain,300,2013-03-31 23:56:00
6:56 PM,54.0,51.1,90,30.06,6.0,Calm,Calm,-,N/A,,Overcast,0,2013-04-01 01:56:00
7:56 PM,54.0,51.1,90,30.06,10.0,Calm,Calm,-,N/A,,Overcast,0,2013-04-01 02:56:00
8:56 PM,53.1,51.1,93,30.07,4.0,Calm,Calm,-,N/A,,Overcast,0,2013-04-01 03:56:00
9:56 PM,53.1,51.1,93,30.08,7.0,Calm,Calm,-,N/A,,Overcast,0,2013-04-01 04:56:00
10:21 PM,51.8,50.0,94,30.08,6.0,South,4.6,-,N/A,,Overcast,180,2013-04-01 05:21:00
11:07 PM,51.8,50.0,94,30.07,6.0,South,4.6,-,N/A,,Mostly Cloudy,190,2013-04-01 06:07:00
11:20 PM,51.8,50.0,94,30.07,5.0,South,3.5,-,N/A,,Mostly Cloudy,180,2013-04-01 06:20:00
11:34 PM,51.8,50.0,94,30.07,6.0,SSW,3.5,-,N/A,,Overcast,200,2013-04-01 06:34:00
11:50 PM,51.8,50.0,94,30.07,1.8,SSW,3.5,-,N/A,,Overcast,200,2013-04-01 06:50:00
11:56 PM,51.1,50.0,96,30.08,1.0,South,3.5,-,N/A,,Mist,190,2013-04-01 06:56:00